createdAt,value
2018-03-28T00:00:29.356Z,7.94
2018-03-28T00:05:49.540Z,7.86
2018-03-28T00:08:17.022Z,7.87
2018-03-28T00:10:44.471Z,7.86
2018-03-28T00:13:11.952Z,7.87
2018-03-28T00:15:39.386Z,7.88
2018-03-28T00:18:06.886Z,7.80
2018-03-28T00:20:34.364Z,7.83
2018-03-28T00:23:01.878Z,7.82
2018-03-28T00:25:29.342Z,7.82
2018-03-28T00:27:56.824Z,7.83
2018-03-28T00:30:24.484Z,7.75
2018-03-28T00:32:51.916Z,7.71
2018-03-28T00:35:19.434Z,7.69
2018-03-28T00:37:46.916Z,7.71
2018-03-28T00:40:14.856Z,7.64
2018-03-28T00:42:42.336Z,7.65
2018-03-28T00:45:09.794Z,7.64
2018-03-28T00:47:37.270Z,7.64
2018-03-28T00:50:05.524Z,7.67
2018-03-28T00:52:47.217Z,7.66
2018-03-28T00:55:14.694Z,7.65
2018-03-28T00:57:42.148Z,7.69
2018-03-28T01:00:11.463Z,7.64
2018-03-28T01:02:53.166Z,7.61
2018-03-28T01:05:20.645Z,7.56
2018-03-28T01:07:48.154Z,7.55
2018-03-28T01:10:15.648Z,7.56
2018-03-28T01:12:43.230Z,7.48
2018-03-28T01:15:10.779Z,7.48
2018-03-28T01:17:38.344Z,7.52
2018-03-28T01:20:05.912Z,7.46
2018-03-28T01:22:48.047Z,7.41
2018-03-28T01:25:15.660Z,7.42
2018-03-28T01:27:43.228Z,7.39
2018-03-28T01:30:10.732Z,7.36
2018-03-28T01:32:38.280Z,7.37
2018-03-28T01:35:06.022Z,7.39
2018-03-28T01:37:33.876Z,7.41
2018-03-28T01:40:01.344Z,7.34
2018-03-28T01:42:43.102Z,7.35
2018-03-28T01:45:10.588Z,7.37
2018-03-28T01:47:38.223Z,7.29
2018-03-28T01:50:05.733Z,7.29
2018-03-28T01:52:33.545Z,7.28
2018-03-28T01:55:01.067Z,7.23
2018-03-28T01:57:28.553Z,7.21
2018-03-28T01:59:56.047Z,7.21
2018-03-28T02:02:23.540Z,7.21
2018-03-28T02:04:51.056Z,7.19
2018-03-28T02:07:18.616Z,7.18
2018-03-28T02:09:46.199Z,7.22
2018-03-28T02:12:14.517Z,7.22
2018-03-28T02:14:42.081Z,7.19
2018-03-28T02:17:09.672Z,7.19
2018-03-28T02:19:37.412Z,7.18
2018-03-28T02:24:57.445Z,7.16
2018-03-28T02:27:24.941Z,7.21
2018-03-28T02:29:52.517Z,7.20
2018-03-28T02:32:20.038Z,7.28
2018-03-28T02:34:47.542Z,7.25
2018-03-28T02:37:15.804Z,7.20
2018-03-28T02:39:43.297Z,7.23
2018-03-28T02:42:10.811Z,7.22
2018-03-28T02:44:39.453Z,7.23
2018-03-28T02:47:06.996Z,7.22
2018-03-28T02:49:34.490Z,7.23
2018-03-28T02:52:02.141Z,7.22
2018-03-28T02:54:29.714Z,7.25
2018-03-28T02:56:57.454Z,7.27
2018-03-28T02:59:25.780Z,7.23
2018-03-28T03:01:54.371Z,7.26
2018-03-28T03:04:21.966Z,7.23
2018-03-28T03:06:49.587Z,7.24
2018-03-28T03:09:17.113Z,7.25
2018-03-28T03:11:44.621Z,7.26
2018-03-28T03:14:12.186Z,7.30
2018-03-28T03:16:39.719Z,7.32
2018-03-28T03:19:07.464Z,7.35
2018-03-28T03:21:35.057Z,7.38
2018-03-28T03:24:04.952Z,7.38
2018-03-28T03:26:32.435Z,7.38
2018-03-28T03:29:00.533Z,7.39
2018-03-28T03:31:28.789Z,7.41
2018-03-28T03:33:56.328Z,7.43
2018-03-28T03:36:24.599Z,7.41
2018-03-28T03:38:52.157Z,7.32
2018-03-28T03:41:19.726Z,7.33
2018-03-28T03:43:47.243Z,7.31
2018-03-28T03:46:15.113Z,7.29
2018-03-28T03:48:42.630Z,7.34
2018-03-28T03:51:10.528Z,7.34
2018-03-28T03:53:38.022Z,7.34
2018-03-28T03:56:07.117Z,7.36
2018-03-28T03:58:35.112Z,7.39
2018-03-28T04:01:02.667Z,7.42
2018-03-28T04:03:30.231Z,7.39
2018-03-28T04:05:57.789Z,7.38
2018-03-28T04:08:25.367Z,7.35
2018-03-28T04:10:53.006Z,7.36
2018-03-28T04:13:20.523Z,7.39
2018-03-28T04:15:48.017Z,7.41
2018-03-28T04:18:15.793Z,7.43
2018-03-28T04:20:43.392Z,7.46
2018-03-28T04:23:11.073Z,7.47
2018-03-28T04:25:38.726Z,7.50
2018-03-28T04:28:06.313Z,7.50
2018-03-28T04:30:34.725Z,7.51
2018-03-28T04:33:02.363Z,7.52
2018-03-28T04:35:30.103Z,7.52
2018-03-28T04:37:57.705Z,7.54
2018-03-28T04:40:25.267Z,7.57
2018-03-28T04:42:52.869Z,7.55
2018-03-28T04:45:20.391Z,7.57
2018-03-28T04:47:48.072Z,7.59
2018-03-28T04:50:15.708Z,7.63
2018-03-28T04:52:48.229Z,7.62
2018-03-28T04:55:15.653Z,7.62
2018-03-28T04:57:43.900Z,7.63
2018-03-28T05:00:11.352Z,7.65
2018-03-28T05:02:48.510Z,7.65
2018-03-28T05:05:15.943Z,7.69
2018-03-28T05:07:43.464Z,7.68
2018-03-28T05:10:10.948Z,7.69
2018-03-28T05:12:38.488Z,7.72
2018-03-28T05:15:06.020Z,7.71
2018-03-28T05:17:33.518Z,7.71
2018-03-28T05:20:01.255Z,7.72
2018-03-28T05:22:28.939Z,7.72
2018-03-28T05:24:56.450Z,7.74
2018-03-28T05:27:24.020Z,7.74
2018-03-28T05:29:51.472Z,7.71
2018-03-28T05:32:18.986Z,7.71
2018-03-28T05:34:46.498Z,7.71
2018-03-28T05:37:15.551Z,7.72
2018-03-28T05:39:43.360Z,7.73
2018-03-28T05:42:10.998Z,7.77
2018-03-28T05:44:38.502Z,7.77
2018-03-28T05:47:06.082Z,7.76
2018-03-28T05:49:34.562Z,7.71
2018-03-28T05:52:02.772Z,7.70
2018-03-28T05:54:30.786Z,7.74
2018-03-28T05:56:58.317Z,7.74
2018-03-28T05:59:26.671Z,7.76
2018-03-28T06:01:54.334Z,7.79
2018-03-28T06:04:22.212Z,7.74
2018-03-28T06:06:50.165Z,7.74
2018-03-28T06:09:18.476Z,7.76
2018-03-28T06:11:46.172Z,7.75
2018-03-28T06:14:16.434Z,7.76
2018-03-28T06:16:44.112Z,7.79
2018-03-28T06:19:12.684Z,7.81
2018-03-28T06:21:41.666Z,7.82
2018-03-28T06:24:09.353Z,7.82
2018-03-28T06:26:36.892Z,7.83
2018-03-28T06:29:04.454Z,7.86
2018-03-28T06:31:32.407Z,7.89
2018-03-28T06:34:00.153Z,7.91
2018-03-28T06:36:27.926Z,7.92
2018-03-28T06:38:55.618Z,7.92
2018-03-28T06:41:23.193Z,7.93
2018-03-28T06:43:50.818Z,7.87
2018-03-28T06:46:18.395Z,7.86
2018-03-28T06:48:47.013Z,7.88
2018-03-28T06:51:14.642Z,7.87
2018-03-28T06:53:42.252Z,7.89
2018-03-28T06:56:09.938Z,7.91
2018-03-28T06:58:37.483Z,7.92
2018-03-28T07:01:05.028Z,7.89
2018-03-28T07:03:32.504Z,7.89
2018-03-28T07:06:00.106Z,7.86
2018-03-28T07:08:27.611Z,7.88
2018-03-28T07:10:55.293Z,7.88
2018-03-28T07:13:22.775Z,7.88
2018-03-28T07:15:50.612Z,7.93
2018-03-28T07:18:23.070Z,7.95
2018-03-28T07:20:50.615Z,7.99
2018-03-28T07:23:18.062Z,7.99
2018-03-28T07:25:45.556Z,7.99
2018-03-28T07:28:13.031Z,7.99
2018-03-28T07:30:40.598Z,8.04
2018-03-28T07:33:08.499Z,8.13
2018-03-28T07:35:36.014Z,8.20
2018-03-28T07:38:03.494Z,8.29
2018-03-28T07:40:31.857Z,8.34
2018-03-28T07:42:59.368Z,8.37
2018-03-28T07:45:26.898Z,8.34
2018-03-28T07:47:54.788Z,8.34
2018-03-28T07:50:22.316Z,8.30
2018-03-28T07:52:49.945Z,8.22
2018-03-28T07:55:17.640Z,8.21
2018-03-28T07:57:46.146Z,8.17
2018-03-28T08:00:13.648Z,8.09
2018-03-28T08:02:41.187Z,8.08
2018-03-28T08:05:08.672Z,8.12
2018-03-28T08:07:36.236Z,8.12
2018-03-28T08:10:04.108Z,8.11
2018-03-28T08:12:31.746Z,8.19
2018-03-28T08:15:00.098Z,8.17
2018-03-28T08:17:27.599Z,8.14
2018-03-28T08:19:55.058Z,8.13
2018-03-28T08:22:23.320Z,8.12
2018-03-28T08:24:53.542Z,8.11
2018-03-28T08:27:22.286Z,8.07
2018-03-28T08:29:49.842Z,8.02
2018-03-28T08:32:17.390Z,8.03
2018-03-28T08:34:45.097Z,8.02
2018-03-28T08:37:12.880Z,8.02
2018-03-28T08:39:40.416Z,8.04
2018-03-28T08:42:08.209Z,8.03
2018-03-28T08:44:35.742Z,8.05
2018-03-28T08:47:03.318Z,8.08
2018-03-28T08:49:30.783Z,8.12
2018-03-28T08:51:58.260Z,8.15
2018-03-28T08:54:25.772Z,8.17
2018-03-28T08:56:53.230Z,8.20
2018-03-28T08:59:20.784Z,8.26
2018-03-28T09:07:33.328Z,8.39
2018-03-28T09:10:00.846Z,8.44
2018-03-28T09:12:28.376Z,8.49
2018-03-28T09:14:55.852Z,8.53
2018-03-28T09:17:23.372Z,8.59
2018-03-28T09:19:50.925Z,8.64
2018-03-28T09:22:18.462Z,8.69
2018-03-28T09:24:45.990Z,8.66
2018-03-28T09:27:14.564Z,8.68
2018-03-28T09:29:42.133Z,8.72
2018-03-28T09:32:09.673Z,8.73
2018-03-28T09:34:37.210Z,8.72
2018-03-28T09:37:05.618Z,8.74
2018-03-28T09:39:33.387Z,8.78
2018-03-28T09:42:05.006Z,8.78
2018-03-28T09:44:33.185Z,8.77
2018-03-28T09:47:00.794Z,8.78
2018-03-28T09:49:28.324Z,8.78
2018-03-28T09:51:56.131Z,8.76
2018-03-28T09:54:26.334Z,8.77
2018-03-28T09:56:53.872Z,8.75
2018-03-28T09:59:21.386Z,8.72
2018-03-28T10:01:54.742Z,8.83
2018-03-28T10:04:22.282Z,8.94
2018-03-28T10:06:50.017Z,8.95
2018-03-28T10:09:17.716Z,8.87
2018-03-28T10:12:08.935Z,8.87
2018-03-28T10:14:36.633Z,8.91
2018-03-28T10:17:06.009Z,8.90
2018-03-28T10:19:33.533Z,8.85
2018-03-28T10:22:02.015Z,8.85
2018-03-28T10:24:30.884Z,8.83
2018-03-28T10:26:58.358Z,8.85
2018-03-28T10:29:25.947Z,8.82
2018-03-28T10:31:53.423Z,8.82
2018-03-28T10:34:21.069Z,8.83
2018-03-28T10:36:48.528Z,8.83
2018-03-28T10:39:16.059Z,8.87
2018-03-28T10:41:53.224Z,8.88
2018-03-28T10:44:20.659Z,8.89
2018-03-28T10:46:48.475Z,8.88
2018-03-28T10:49:16.024Z,8.93
2018-03-28T10:51:43.614Z,8.98
2018-03-28T10:54:11.082Z,9.03
2018-03-28T10:56:38.677Z,9.05
2018-03-28T10:59:06.878Z,9.11
2018-03-28T11:01:34.426Z,9.14
2018-03-28T11:04:01.879Z,9.19
2018-03-28T11:06:29.607Z,9.24
2018-03-28T11:08:57.813Z,9.28
2018-03-28T11:11:25.466Z,9.31
2018-03-28T11:13:53.065Z,9.29
2018-03-28T11:16:20.857Z,9.33
2018-03-28T11:18:48.521Z,9.32
2018-03-28T11:21:22.317Z,9.29
2018-03-28T11:23:49.927Z,9.27
2018-03-28T11:26:17.755Z,9.26
2018-03-28T11:28:47.048Z,9.29
2018-03-28T11:34:21.755Z,9.29
2018-03-28T11:36:49.427Z,9.26
2018-03-28T11:39:17.335Z,9.26
2018-03-28T11:42:04.167Z,9.28
2018-03-28T11:44:31.975Z,9.27
2018-03-28T11:46:59.981Z,9.26
2018-03-28T11:49:27.473Z,9.27
2018-03-28T11:51:54.952Z,9.28
2018-03-28T11:54:23.263Z,9.29
2018-03-28T11:56:52.507Z,9.31
2018-03-28T11:59:21.019Z,9.31
2018-03-28T12:01:49.475Z,9.38
2018-03-28T12:04:17.110Z,9.42
2018-03-28T12:06:44.888Z,9.36
2018-03-28T12:09:12.375Z,9.31
2018-03-28T12:11:39.886Z,9.27
2018-03-28T12:14:08.835Z,9.26
2018-03-28T12:16:36.475Z,9.22
2018-03-28T12:19:04.369Z,9.18
2018-03-28T12:24:30.054Z,9.22
2018-03-28T12:26:57.577Z,9.19
2018-03-28T12:29:25.497Z,9.19
2018-03-28T12:32:02.905Z,9.15
2018-03-28T12:34:30.402Z,9.14
2018-03-28T12:36:57.948Z,9.13
2018-03-28T12:39:26.195Z,9.12
2018-03-28T12:42:13.233Z,9.11
2018-03-28T12:44:40.784Z,9.09
2018-03-28T12:47:09.691Z,9.08
2018-03-28T12:49:37.538Z,9.04
2018-03-28T12:52:05.488Z,9.07
2018-03-28T12:54:33.894Z,9.07
2018-03-28T12:57:06.959Z,9.08
2018-03-28T12:59:35.485Z,9.12
2018-03-28T13:02:02.939Z,9.18
2018-03-28T13:04:30.509Z,9.27
2018-03-28T13:06:58.066Z,9.34
2018-03-28T13:09:25.741Z,9.37
2018-03-28T13:11:53.468Z,9.40
2018-03-28T13:14:21.699Z,9.44
2018-03-28T13:16:50.058Z,9.43
2018-03-28T13:19:17.942Z,9.47
2018-03-28T13:21:47.182Z,9.50
2018-03-28T13:24:14.727Z,9.45
2018-03-28T13:26:43.321Z,9.49
2018-03-28T13:29:11.125Z,9.55
2018-03-28T13:31:38.702Z,9.60
2018-03-28T13:34:08.050Z,9.64
2018-03-28T13:36:35.804Z,9.75
2018-03-28T13:39:04.153Z,9.79
2018-03-28T13:41:31.719Z,9.84
2018-03-28T13:43:59.244Z,9.89
2018-03-28T13:46:26.998Z,9.92
2018-03-28T13:48:54.832Z,9.95
2018-03-28T13:51:22.436Z,9.98
2018-03-28T13:53:49.880Z,10.07
2018-03-28T13:56:17.418Z,10.06
2018-03-28T13:58:45.100Z,10.08
2018-03-28T14:01:13.393Z,10.11
2018-03-28T14:03:41.090Z,10.07
2018-03-28T14:06:08.573Z,10.06
2018-03-28T14:08:36.131Z,10.16
2018-03-28T14:11:04.475Z,10.27
2018-03-28T14:13:32.072Z,10.32
2018-03-28T14:15:59.544Z,10.29
2018-03-28T14:18:27.214Z,10.29
2018-03-28T14:20:54.680Z,10.25
2018-03-28T14:23:27.238Z,10.15
2018-03-28T14:25:54.712Z,10.08
2018-03-28T14:28:22.435Z,10.00
2018-03-28T14:30:49.994Z,9.91
2018-03-28T14:33:17.482Z,9.90
2018-03-28T14:35:45.093Z,9.90
2018-03-28T14:38:12.684Z,9.81
2018-03-28T14:40:40.996Z,9.80
2018-03-28T14:43:08.492Z,9.79
2018-03-28T14:45:36.012Z,9.79
2018-03-28T14:48:03.672Z,9.79
2018-03-28T14:50:31.241Z,9.80
2018-03-28T14:52:58.880Z,9.82
2018-03-28T14:55:26.832Z,9.89
2018-03-28T14:57:54.358Z,9.92
2018-03-28T15:00:21.864Z,9.92
2018-03-28T15:03:13.068Z,9.97
2018-03-28T15:05:40.664Z,9.96
2018-03-28T15:08:08.192Z,9.91
2018-03-28T15:10:35.831Z,9.88
2018-03-28T15:13:03.324Z,9.88
2018-03-28T15:15:30.814Z,9.75
2018-03-28T15:17:58.292Z,9.70
2018-03-28T15:20:25.836Z,9.61
2018-03-28T15:22:53.337Z,9.54
2018-03-28T15:25:21.036Z,9.59
2018-03-28T15:27:49.343Z,9.58
2018-03-28T15:30:16.816Z,9.54
2018-03-28T15:32:44.314Z,9.50
2018-03-28T15:35:11.870Z,9.46
2018-03-28T15:37:39.591Z,9.40
2018-03-28T15:40:07.630Z,9.37
2018-03-28T15:42:45.587Z,9.37
2018-03-28T15:45:13.135Z,9.32
2018-03-28T15:47:40.854Z,9.32
2018-03-28T15:50:08.578Z,9.28
2018-03-28T15:52:36.291Z,9.28
2018-03-28T15:55:03.754Z,9.25
2018-03-28T15:57:31.239Z,9.24
2018-03-28T15:59:58.770Z,9.19
2018-03-28T16:02:26.274Z,9.13
2018-03-28T16:04:54.077Z,9.16
2018-03-28T16:07:21.571Z,9.20
2018-03-28T16:09:49.393Z,9.16
2018-03-28T16:12:17.096Z,9.15
2018-03-28T16:14:44.622Z,9.21
2018-03-28T16:17:19.852Z,9.15
2018-03-28T16:19:47.559Z,9.14
2018-03-28T16:25:12.650Z,9.18
2018-03-28T16:27:40.173Z,9.15
2018-03-28T16:30:08.921Z,9.20
2018-03-28T16:32:37.000Z,9.18
2018-03-28T16:35:04.724Z,9.21
2018-03-28T16:37:32.559Z,9.22
2018-03-28T16:40:00.338Z,9.17
2018-03-28T16:42:32.886Z,9.17
2018-03-28T16:45:00.674Z,9.18
2018-03-28T16:47:28.260Z,9.16
2018-03-28T16:49:55.766Z,9.15
2018-03-28T17:07:09.532Z,9.11
2018-03-28T17:09:37.323Z,9.11
2018-03-28T17:12:05.181Z,9.11
2018-03-28T17:14:32.639Z,9.12
2018-03-28T17:17:02.879Z,9.12
2018-03-28T17:19:30.458Z,9.13
2018-03-28T17:21:59.293Z,9.14
2018-03-28T17:24:26.852Z,9.13
2018-03-28T17:26:54.412Z,9.13
2018-03-28T17:29:22.220Z,9.16
2018-03-28T17:31:50.644Z,9.18
2018-03-28T17:34:18.117Z,9.18
2018-03-28T17:36:45.593Z,9.17
2018-03-28T17:39:13.388Z,9.16
2018-03-28T17:41:41.106Z,9.16
2018-03-28T17:44:09.057Z,9.17
2018-03-28T17:46:36.577Z,9.18
2018-03-28T17:49:04.073Z,9.15
2018-03-28T17:51:31.547Z,9.14
2018-03-28T17:53:59.062Z,9.12
2018-03-28T17:56:26.612Z,9.11
2018-03-28T17:58:54.118Z,9.11
2018-03-28T18:01:22.272Z,9.10
2018-03-28T18:03:49.762Z,9.08
2018-03-28T18:06:17.504Z,9.06
2018-03-28T18:08:45.267Z,9.05
2018-03-28T18:11:12.964Z,9.04
2018-03-28T18:13:40.540Z,9.02
2018-03-28T18:16:08.765Z,9.03
2018-03-28T18:18:36.249Z,9.02
2018-03-28T18:21:04.112Z,9.02
2018-03-28T18:23:31.755Z,9.04
2018-03-28T18:25:59.306Z,9.02
2018-03-28T18:28:27.708Z,9.00
2018-03-28T18:30:55.282Z,9.02
2018-03-28T18:33:22.846Z,8.98
2018-03-28T18:35:50.350Z,8.97
2018-03-28T18:38:17.883Z,8.98
2018-03-28T18:40:45.410Z,8.99
2018-03-28T18:43:13.150Z,9.03
2018-03-28T18:45:40.888Z,9.02
2018-03-28T18:48:08.479Z,9.02
2018-03-28T18:50:36.249Z,9.03
2018-03-28T18:53:08.738Z,8.99
2018-03-28T18:55:36.298Z,9.01
2018-03-28T18:58:04.005Z,9.00
2018-03-28T19:00:31.627Z,8.99
2018-03-28T19:02:59.191Z,9.02
2018-03-28T19:05:26.859Z,9.02
2018-03-28T19:07:54.359Z,9.01
2018-03-28T19:10:22.323Z,9.01
2018-03-28T19:12:49.764Z,9.02
2018-03-28T19:15:17.307Z,9.03
2018-03-28T19:17:44.907Z,9.02
2018-03-28T19:20:12.696Z,9.05
2018-03-28T19:22:40.450Z,9.00
2018-03-28T19:25:08.028Z,9.00
2018-03-28T19:27:35.731Z,9.00
2018-03-28T19:30:03.218Z,8.99
2018-03-28T19:32:30.785Z,9.01
2018-03-28T19:34:58.336Z,9.04
2018-03-28T19:37:25.861Z,9.01
2018-03-28T19:39:54.312Z,9.01
2018-03-28T19:42:21.847Z,9.01
2018-03-28T19:44:49.428Z,9.03
2018-03-28T19:47:17.250Z,9.04
2018-03-28T19:49:44.995Z,9.02
2018-03-28T19:55:05.350Z,9.06
2018-03-28T19:57:33.606Z,9.04
2018-03-28T20:00:01.289Z,9.04
2018-03-28T20:02:28.823Z,9.04
2018-03-28T20:05:02.332Z,9.06
2018-03-28T20:07:29.871Z,9.06
2018-03-28T20:09:57.435Z,9.05
2018-03-28T20:12:24.929Z,9.04
2018-03-28T20:14:53.308Z,9.03
2018-03-28T20:17:20.840Z,9.03
2018-03-28T20:19:48.399Z,9.04
2018-03-28T20:22:15.943Z,9.03
2018-03-28T20:24:43.546Z,9.05
2018-03-28T20:27:11.077Z,9.07
2018-03-28T20:29:38.868Z,9.09
2018-03-28T20:32:06.597Z,9.13
2018-03-28T20:34:34.137Z,9.11
2018-03-28T20:37:01.700Z,9.10
2018-03-28T20:39:29.261Z,9.10
2018-03-28T20:41:56.785Z,9.11
2018-03-28T20:44:24.332Z,9.14
2018-03-28T20:46:51.853Z,9.13
2018-03-28T20:49:19.322Z,9.13
2018-03-28T20:51:46.838Z,9.14
2018-03-28T20:54:15.191Z,9.12
2018-03-28T20:56:42.659Z,9.11
2018-03-28T20:59:11.250Z,9.10
2018-03-28T21:01:38.786Z,9.12
2018-03-28T21:04:06.319Z,9.12
2018-03-28T21:06:33.809Z,9.13
2018-03-28T21:09:01.384Z,9.13
2018-03-28T21:11:33.850Z,9.13
2018-03-28T21:14:01.440Z,9.14
2018-03-28T21:16:28.927Z,9.14
2018-03-28T21:18:56.434Z,9.15
2018-03-28T21:21:23.955Z,9.19
2018-03-28T21:23:51.457Z,9.19
2018-03-28T21:26:19.170Z,9.21
2018-03-28T21:28:46.634Z,9.21
2018-03-28T21:31:14.097Z,9.30
2018-03-28T21:33:41.817Z,9.30
2018-03-28T21:36:13.303Z,9.33
2018-03-28T21:38:40.824Z,9.40
2018-03-28T21:41:08.344Z,9.39
2018-03-28T21:43:35.849Z,9.38
2018-03-28T21:46:03.348Z,9.38
2018-03-28T21:48:31.364Z,9.40
2018-03-28T21:50:58.897Z,9.43
2018-03-28T21:53:26.762Z,9.50
2018-03-28T21:55:54.273Z,9.53
2018-03-28T21:58:21.787Z,9.54
2018-03-28T22:00:49.257Z,9.59
2018-03-28T22:03:16.729Z,9.60
2018-03-28T22:05:44.219Z,9.65
2018-03-28T22:08:11.709Z,9.64
2018-03-28T22:10:39.238Z,9.60
2018-03-28T22:13:06.730Z,9.60
2018-03-28T22:15:34.178Z,9.54
2018-03-28T22:18:01.897Z,9.57
2018-03-28T22:20:29.349Z,9.57
2018-03-28T22:22:57.442Z,9.63
2018-03-28T22:25:24.990Z,9.63
2018-03-28T22:27:52.456Z,9.63
2018-03-28T22:30:19.935Z,9.58
2018-03-28T22:32:47.571Z,9.49
2018-03-28T22:35:15.069Z,9.43
2018-03-28T22:37:42.595Z,9.34
2018-03-28T22:40:10.474Z,9.29
2018-03-28T22:42:47.590Z,9.25
2018-03-28T22:45:15.193Z,9.21
2018-03-28T22:47:42.649Z,9.20
2018-03-28T22:50:10.117Z,9.19
2018-03-28T22:52:37.877Z,9.16
2018-03-28T22:55:05.481Z,9.16
2018-03-28T22:57:33.505Z,9.12
2018-03-28T23:00:01.074Z,9.10
2018-03-28T23:02:28.536Z,9.08
2018-03-28T23:04:56.215Z,9.06
2018-03-28T23:07:23.662Z,9.05
2018-03-28T23:09:51.255Z,9.05
2018-03-28T23:12:18.968Z,9.03
2018-03-28T23:14:46.456Z,8.99
2018-03-28T23:17:14.288Z,8.99
2018-03-28T23:19:41.772Z,8.96
2018-03-28T23:22:23.460Z,8.95
2018-03-28T23:24:50.958Z,8.96
2018-03-28T23:27:18.519Z,8.97
2018-03-28T23:29:45.964Z,8.93
2018-03-28T23:32:13.486Z,8.91
2018-03-28T23:34:41.029Z,8.91
2018-03-28T23:37:08.495Z,8.90
2018-03-28T23:39:35.980Z,8.91
2018-03-28T23:42:03.744Z,8.91
2018-03-28T23:44:31.198Z,8.93
2018-03-28T23:46:58.821Z,8.91
2018-03-28T23:49:26.326Z,8.92
2018-03-28T23:51:53.785Z,8.91
2018-03-28T23:54:21.273Z,8.90
2018-03-28T23:56:48.738Z,8.88
2018-03-28T23:59:16.224Z,8.87
